This is the latest recevied weather packets stored in our database for station/object HS5NMF. If no packets are shown the sender has not sent any weather packets the latest 10 day(s).
| Time | Temp. | Humidity | Pressure | Rain* | Wind** | Luminosity | Snow |
|---|---|---|---|---|---|---|---|
| 1778113649 | 32.78° C | 69% | 978 hPa | - | - | 0 W/m² | - |
| 1778113324 | 32.22° C | 71% | 978 hPa | - | - | 0 W/m² | - |
| 1778113001 | 32.22° C | 72% | 978 hPa | - | - | 0 W/m² | - |
| 1778112678 | 31.11° C | 75% | 978 hPa | - | - | 0 W/m² | - |
| 1778112350 | 31.11° C | 75% | 978 hPa | - | - | 0 W/m² | - |
| 1778112027 | 30.56° C | 77% | 978 hPa | - | - | 0 W/m² | - |
| 1778111706 | 30.56° C | 76% | 978 hPa | - | - | 0 W/m² | - |
| 1778111382 | 30° C | 77% | 977 hPa | - | - | 0 W/m² | - |
| 1778111058 | 29.44° C | 79% | 978 hPa | - | - | 0 W/m² | - |
| 1778110738 | 28.89° C | 81% | 977 hPa | - | - | 0 W/m² | - |
| 1778110412 | 29.44° C | 78% | 977 hPa | - | - | 0 W/m² | - |
| 1778110089 | 29.44° C | 75% | 977 hPa | - | - | 0 W/m² | - |
| 1778109765 | 29.44° C | 76% | 977 hPa | - | - | 0 W/m² | - |
| 1778109442 | 28.89° C | 79% | 977 hPa | - | - | 0 W/m² | - |
| 1778109120 | 28.89° C | 78% | 977 hPa | - | - | 0 W/m² | - |
| 1778108798 | 28.33° C | 80% | 977 hPa | - | - | 0 W/m² | - |
| 1778108476 | 28.33° C | 80% | 977 hPa | - | - | 0 W/m² | - |
| 1778108152 | 28.33° C | 81% | 977 hPa | - | - | 0 W/m² | - |
| 1778107827 | 28.33° C | 80% | 977 hPa | - | - | 0 W/m² | - |
| 1778107501 | 28.33° C | 81% | 977 hPa | - | - | 0 W/m² | - |
| 1778107182 | 28.33° C | 82% | 977 hPa | - | - | 0 W/m² | - |
| 1778106857 | 28.33° C | 83% | 977 hPa | - | - | 0 W/m² | - |
| 1778106533 | 28.33° C | 81% | 977 hPa | - | - | 0 W/m² | - |
| 1778106210 | 28.89° C | 79% | 977 hPa | - | - | 0 W/m² | - |
| 1778105885 | 28.33° C | 84% | 977 hPa | - | - | 0 W/m² | - |
* Rain since midnight (hover to see other rain measurements)
** Current wind speed in m/s (hover to see current wind gust speed)